Terminal Aerodrome Forecast
Issued by NWS Paducah, KY

Home | Current Version | Previous Version | Text Only | Print | Product List | Glossary On
Versions: 1 2 3 4 5 6 7 8 9 10 11 12 13 14 15 16 17 18 19
924
FTUS43 KPAH 150520
TAFEVV
TAF
KEVV 150520Z 1506/1606 00000KT P6SM SCT040 BKN150
      TEMPO 1506/1509 BKN040
     FM150900 00000KT 4SM BR SCT040
     FM151300 20005KT P6SM SCT040
     FM160000 18003KT P6SM SCT050 BKN150=

USA.gov is the U.S. government's official web portal to all federal, state and local government web resources and services.